createdAt,value
2022-10-17T00:00:02.257Z,4.47
2022-10-17T00:02:28.776Z,4.60
2022-10-17T00:04:56.608Z,4.72
2022-10-17T00:07:23.214Z,4.43
2022-10-17T00:09:49.710Z,4.80
2022-10-17T00:12:16.252Z,4.10
2022-10-17T00:14:42.859Z,4.60
2022-10-17T00:17:09.387Z,4.10
2022-10-17T00:19:36.036Z,4.20
2022-10-17T00:22:03.960Z,3.83
2022-10-17T00:24:30.936Z,4.25
2022-10-17T00:26:57.489Z,4.18
2022-10-17T00:29:24.069Z,4.20
2022-10-17T00:34:29.667Z,4.20
2022-10-17T00:36:56.304Z,4.22
2022-10-17T00:39:24.301Z,4.30
2022-10-17T00:41:51.109Z,3.95
2022-10-17T00:45:00.155Z,3.95
2022-10-17T00:47:26.849Z,4.40
2022-10-17T00:49:53.455Z,4.10
2022-10-17T00:52:24.204Z,4.38
2022-10-17T00:54:56.614Z,4.40
2022-10-17T00:57:23.487Z,4.63
2022-10-17T00:59:55.165Z,5.10
2022-10-17T01:02:22.526Z,5.00
2022-10-17T01:04:52.322Z,4.82
2022-10-17T01:07:18.870Z,3.92
2022-10-17T01:09:46.829Z,4.15
2022-10-17T01:12:20.850Z,4.10
2022-10-17T01:14:58.041Z,4.47
2022-10-17T01:17:33.848Z,3.80
2022-10-17T01:20:23.516Z,3.60
2022-10-17T01:22:58.339Z,4.30
2022-10-17T01:25:36.061Z,3.70
2022-10-17T01:28:22.763Z,3.83
2022-10-17T01:31:12.064Z,3.85
2022-10-17T01:33:51.904Z,4.13
2022-10-17T01:36:28.760Z,4.05
2022-10-17T01:39:02.123Z,4.10
2022-10-17T01:41:39.177Z,4.10
2022-10-17T01:44:12.140Z,4.22
2022-10-17T01:46:43.768Z,3.88
2022-10-17T01:49:12.988Z,3.92
2022-10-17T01:51:43.651Z,4.00
2022-10-17T01:54:13.999Z,3.92
2022-10-17T01:56:42.649Z,4.68
2022-10-17T01:59:14.496Z,3.83
2022-10-17T02:01:45.606Z,4.07
2022-10-17T02:04:12.441Z,3.67
2022-10-17T02:06:39.026Z,3.83
2022-10-17T02:09:17.706Z,3.92
2022-10-17T02:11:50.417Z,3.88
2022-10-17T02:14:27.043Z,4.18
2022-10-17T02:17:05.185Z,3.60
2022-10-17T02:19:43.061Z,3.45
2022-10-17T02:22:17.881Z,3.25
2022-10-17T02:24:49.915Z,3.00
2022-10-17T02:27:25.219Z,3.30
2022-10-17T02:29:58.738Z,3.20
2022-10-17T02:32:35.097Z,3.20
2022-10-17T02:35:05.745Z,3.40
2022-10-17T02:37:34.137Z,3.40
2022-10-17T02:40:01.791Z,3.33
2022-10-17T02:42:30.177Z,3.33
2022-10-17T02:45:00.138Z,3.30
2022-10-17T02:47:33.170Z,3.38
2022-10-17T02:49:59.659Z,3.50
2022-10-17T02:52:32.103Z,3.25
2022-10-17T02:55:04.802Z,3.30
2022-10-17T02:57:36.697Z,3.00
2022-10-17T03:00:06.417Z,2.88
2022-10-17T03:02:40.795Z,3.30
2022-10-17T03:05:08.923Z,3.47
2022-10-17T03:07:35.536Z,3.30
2022-10-17T03:10:02.031Z,3.50
2022-10-17T03:12:28.849Z,3.42
2022-10-17T03:14:55.603Z,3.38
2022-10-17T03:17:22.143Z,3.10
2022-10-17T03:19:50.004Z,3.10
2022-10-17T03:22:16.519Z,2.83
2022-10-17T03:24:43.173Z,3.40
2022-10-17T03:27:09.692Z,2.63
2022-10-17T03:29:36.356Z,3.10
2022-10-17T03:32:02.926Z,3.03
2022-10-17T03:34:29.581Z,3.05
2022-10-17T03:36:57.591Z,3.42
2022-10-17T03:39:24.327Z,3.28
2022-10-17T03:41:50.851Z,3.40
2022-10-17T03:44:17.354Z,3.57
2022-10-17T03:46:44.021Z,3.10
2022-10-17T03:49:10.719Z,3.13
2022-10-17T03:51:37.822Z,3.15
2022-10-17T03:54:05.730Z,3.47
2022-10-17T03:56:32.347Z,3.03
2022-10-17T03:58:58.883Z,3.17
2022-10-17T04:01:25.488Z,3.17
2022-10-17T04:03:53.477Z,3.20
2022-10-17T04:06:20.799Z,3.47
2022-10-17T04:08:47.484Z,3.23
2022-10-17T04:11:17.432Z,3.40
2022-10-17T04:13:44.678Z,3.50
2022-10-17T04:16:14.091Z,3.33
2022-10-17T04:18:40.733Z,3.70
2022-10-17T04:21:08.500Z,3.33
2022-10-17T04:23:35.531Z,3.30
2022-10-17T04:26:03.392Z,3.67
2022-10-17T04:28:32.577Z,3.53
2022-10-17T04:31:00.925Z,3.60
2022-10-17T04:33:27.876Z,3.90
2022-10-17T04:35:58.737Z,3.80
2022-10-17T04:38:28.460Z,3.33
2022-10-17T04:40:57.500Z,3.53
2022-10-17T04:43:24.103Z,4.10
2022-10-17T04:45:52.107Z,3.83
2022-10-17T04:48:18.666Z,3.72
2022-10-17T04:50:53.936Z,4.20
2022-10-17T04:53:20.512Z,3.83
2022-10-17T04:55:47.069Z,4.25
2022-10-17T04:58:13.633Z,3.50
2022-10-17T05:00:40.242Z,4.03
2022-10-17T05:03:08.275Z,4.00
2022-10-17T05:05:37.350Z,3.70
2022-10-17T05:08:04.150Z,4.25
2022-10-17T05:10:30.955Z,3.70
2022-10-17T05:12:57.887Z,4.05
2022-10-17T05:15:24.667Z,3.40
2022-10-17T05:17:55.195Z,3.75
2022-10-17T05:20:23.644Z,3.75
2022-10-17T05:22:50.202Z,4.30
2022-10-17T05:25:16.800Z,4.22
2022-10-17T05:27:43.296Z,4.30
2022-10-17T05:30:10.453Z,4.50
2022-10-17T05:32:37.288Z,4.53
2022-10-17T05:35:04.764Z,3.93
2022-10-17T05:37:32.750Z,4.00
2022-10-17T05:39:59.269Z,4.13
2022-10-17T05:42:26.177Z,4.28
2022-10-17T05:44:52.785Z,4.40
2022-10-17T05:47:19.448Z,10.73
2022-10-17T05:49:50.051Z,11.05
2022-10-17T05:52:18.923Z,8.60
2022-10-17T05:54:46.936Z,5.78
2022-10-17T05:57:13.466Z,6.32
2022-10-17T05:59:40.068Z,6.13
2022-10-17T06:02:06.608Z,5.40
2022-10-17T06:04:33.520Z,5.22
2022-10-17T06:07:00.027Z,5.88
2022-10-17T06:09:26.590Z,5.68
2022-10-17T06:11:54.455Z,5.00
2022-10-17T06:14:21.000Z,5.53
2022-10-17T06:16:47.527Z,5.53
2022-10-17T06:19:14.070Z,5.25
2022-10-17T06:21:40.701Z,4.82
2022-10-17T06:24:07.227Z,4.50
2022-10-17T06:26:33.752Z,5.13
2022-10-17T06:29:01.738Z,5.13
2022-10-17T06:31:28.295Z,4.78
2022-10-17T06:33:54.859Z,4.95
2022-10-17T06:36:21.386Z,5.20
2022-10-17T06:38:47.927Z,4.97
2022-10-17T06:41:16.404Z,5.25
2022-10-17T06:43:44.047Z,5.55
2022-10-17T06:46:12.139Z,5.35
2022-10-17T06:48:38.726Z,5.40
2022-10-17T06:51:06.381Z,5.30
2022-10-17T06:53:34.673Z,4.60
2022-10-17T06:56:01.784Z,4.50
2022-10-17T06:58:28.416Z,4.72
2022-10-17T07:01:00.862Z,4.50
2022-10-17T07:03:29.391Z,4.70
2022-10-17T07:05:56.495Z,4.90
2022-10-17T07:08:23.145Z,4.65
2022-10-17T07:10:50.102Z,5.00
2022-10-17T07:13:16.729Z,5.43
2022-10-17T07:15:43.535Z,4.82
2022-10-17T07:18:10.200Z,4.45
2022-10-17T07:20:38.178Z,4.68
2022-10-17T07:23:04.821Z,4.80
2022-10-17T07:25:32.524Z,5.40
2022-10-17T07:28:00.755Z,5.03
2022-10-17T07:30:27.260Z,4.75
2022-10-17T07:32:53.961Z,4.90
2022-10-17T07:35:20.656Z,4.30
2022-10-17T07:37:48.537Z,3.77
2022-10-17T07:40:15.129Z,4.00
2022-10-17T07:42:41.616Z,3.83
2022-10-17T07:45:09.108Z,3.58
2022-10-17T07:47:35.631Z,3.92
2022-10-17T07:50:02.310Z,3.33
2022-10-17T07:52:28.968Z,3.35
2022-10-17T07:54:57.057Z,3.70
2022-10-17T07:57:23.576Z,3.72
2022-10-17T07:59:50.208Z,3.25
2022-10-17T08:02:21.634Z,3.70
2022-10-17T08:04:48.161Z,3.40
2022-10-17T08:07:20.967Z,3.67
2022-10-17T08:09:49.736Z,3.75
2022-10-17T08:12:18.044Z,3.55
2022-10-17T08:14:44.778Z,3.50
2022-10-17T08:17:11.362Z,3.63
2022-10-17T08:19:38.660Z,2.90
2022-10-17T08:22:05.330Z,3.08
2022-10-17T08:24:32.050Z,3.88
2022-10-17T08:26:58.595Z,3.57
2022-10-17T08:29:26.774Z,3.08
2022-10-17T08:31:58.567Z,3.33
2022-10-17T08:34:28.085Z,3.65
2022-10-17T08:36:54.728Z,3.05
2022-10-17T08:39:21.336Z,2.63
2022-10-17T08:42:03.295Z,2.88
2022-10-17T08:44:46.748Z,3.08
2022-10-17T08:47:16.597Z,2.67
2022-10-17T08:49:47.351Z,2.78
2022-10-17T08:52:21.190Z,2.50
2022-10-17T08:54:49.607Z,3.05
2022-10-17T08:57:17.341Z,3.10
2022-10-17T08:59:49.295Z,2.85
2022-10-17T09:02:32.967Z,2.88
2022-10-17T09:05:27.016Z,2.60
2022-10-17T09:08:04.345Z,2.63
2022-10-17T09:10:42.471Z,2.60
2022-10-17T09:13:25.211Z,2.38
2022-10-17T09:16:14.355Z,2.72
2022-10-17T09:18:43.008Z,2.57
2022-10-17T09:21:19.315Z,2.30
2022-10-17T09:23:53.302Z,2.38
2022-10-17T09:26:26.613Z,2.55
2022-10-17T09:28:56.613Z,2.60
2022-10-17T09:31:26.572Z,2.57
2022-10-17T09:33:56.203Z,2.65
2022-10-17T09:36:27.369Z,2.65
2022-10-17T09:38:55.718Z,2.25
2022-10-17T09:44:16.559Z,2.37
2022-10-17T09:46:55.380Z,2.33
2022-10-17T09:49:29.145Z,2.10
2022-10-17T09:51:55.689Z,2.20
2022-10-17T09:54:26.447Z,2.50
2022-10-17T09:57:01.164Z,2.00
2022-10-17T09:59:32.873Z,2.13
2022-10-17T10:02:14.874Z,2.47
2022-10-17T10:05:03.729Z,1.80
2022-10-17T10:07:34.095Z,2.33
2022-10-17T10:10:01.197Z,2.17
2022-10-17T10:12:31.067Z,2.20
2022-10-17T10:14:58.456Z,2.30
2022-10-17T10:17:33.594Z,2.40
2022-10-17T10:20:00.697Z,2.30
2022-10-17T10:22:28.187Z,2.40
2022-10-17T10:25:07.689Z,2.20
2022-10-17T10:27:35.225Z,2.58
2022-10-17T10:30:02.393Z,2.30
2022-10-17T10:32:33.245Z,2.30
2022-10-17T10:35:02.711Z,2.47
2022-10-17T10:37:33.964Z,2.10
2022-10-17T10:40:03.298Z,2.20
2022-10-17T10:42:32.512Z,2.28
2022-10-17T10:45:02.834Z,1.92
2022-10-17T10:47:32.273Z,2.13
2022-10-17T10:50:20.020Z,2.17
2022-10-17T10:52:53.024Z,2.20
2022-10-17T10:55:25.806Z,2.17
2022-10-17T10:57:57.386Z,2.50
2022-10-17T11:00:27.615Z,2.03
2022-10-17T11:03:03.806Z,2.05
2022-10-17T11:05:44.760Z,2.08
2022-10-17T11:08:18.694Z,2.17
2022-10-17T11:11:00.696Z,2.20
2022-10-17T11:13:32.331Z,2.10
2022-10-17T11:16:06.233Z,2.47
2022-10-17T11:18:40.607Z,2.53
2022-10-17T11:21:15.803Z,2.10
2022-10-17T11:23:47.166Z,2.22
2022-10-17T11:26:17.865Z,2.30
2022-10-17T11:28:44.445Z,2.13
2022-10-17T11:31:14.777Z,2.50
2022-10-17T11:33:46.984Z,2.17
2022-10-17T11:36:16.647Z,2.20
2022-10-17T11:38:48.681Z,2.20
2022-10-17T11:41:20.767Z,2.38
2022-10-17T11:43:53.071Z,2.00
2022-10-17T11:46:22.204Z,2.20
2022-10-17T11:48:59.675Z,2.20
2022-10-17T11:54:18.649Z,2.35
2022-10-17T11:56:51.436Z,2.08
2022-10-17T11:59:45.862Z,2.10
2022-10-17T12:02:18.464Z,2.20
2022-10-17T12:04:56.643Z,2.40
2022-10-17T12:07:30.666Z,2.45
2022-10-17T12:10:03.521Z,2.05
2022-10-17T12:12:32.292Z,2.13
2022-10-17T12:15:30.045Z,1.98
2022-10-17T12:17:58.051Z,2.20
2022-10-17T12:20:29.729Z,2.20
2022-10-17T12:23:17.760Z,2.38
2022-10-17T12:25:49.912Z,2.10
2022-10-17T12:28:23.707Z,2.33
2022-10-17T12:30:53.457Z,2.50
2022-10-17T12:33:21.957Z,2.33
2022-10-17T12:35:51.341Z,2.17
2022-10-17T12:38:24.600Z,2.13
2022-10-17T12:40:56.367Z,2.13
2022-10-17T12:43:45.054Z,2.23
2022-10-17T12:46:12.227Z,2.08
2022-10-17T12:49:02.621Z,2.30
2022-10-17T12:52:09.226Z,2.50
2022-10-17T12:54:47.844Z,2.08
2022-10-17T12:57:25.056Z,2.00
2022-10-17T12:59:55.594Z,2.38
2022-10-17T13:02:27.130Z,2.50
2022-10-17T13:05:02.925Z,2.13
2022-10-17T13:07:34.218Z,2.55
2022-10-17T13:10:01.091Z,2.20
2022-10-17T13:12:28.058Z,2.35
2022-10-17T13:14:55.504Z,2.20
2022-10-17T13:17:25.038Z,2.25
2022-10-17T13:19:52.133Z,2.70
2022-10-17T13:22:20.321Z,2.10
2022-10-17T13:24:49.198Z,2.25
2022-10-17T13:27:25.676Z,2.63
2022-10-17T13:29:52.289Z,2.72
2022-10-17T13:32:18.927Z,2.30
2022-10-17T13:34:45.462Z,2.90
2022-10-17T13:37:15.460Z,2.35
2022-10-17T13:39:55.347Z,2.60
2022-10-17T13:42:27.296Z,2.83
2022-10-17T13:44:54.952Z,2.80
2022-10-17T13:47:23.810Z,2.67
2022-10-17T13:49:54.390Z,3.08
2022-10-17T13:52:25.040Z,2.58
2022-10-17T13:54:52.285Z,2.50
2022-10-17T13:57:20.674Z,2.92
2022-10-17T13:59:52.141Z,2.47
2022-10-17T14:02:21.400Z,2.70
2022-10-17T14:05:15.585Z,2.72
2022-10-17T14:08:05.480Z,2.58
2022-10-17T14:10:30.500Z,2.67
2022-10-17T14:12:57.945Z,2.63
2022-10-17T14:15:28.032Z,2.50
2022-10-17T14:17:57.897Z,2.70
2022-10-17T14:23:32.025Z,2.88
2022-10-17T14:26:11.695Z,2.87
2022-10-17T14:28:38.703Z,2.55
2022-10-17T14:31:23.205Z,2.65
2022-10-17T14:33:51.302Z,2.80
2022-10-17T14:36:19.290Z,2.95
2022-10-17T14:38:47.827Z,2.60
2022-10-17T14:44:14.305Z,3.00
2022-10-17T14:46:48.457Z,2.78
2022-10-17T14:49:26.565Z,3.00
2022-10-17T14:52:15.355Z,2.60
2022-10-17T14:54:44.974Z,2.85
2022-10-17T14:57:17.171Z,3.08
2022-10-17T14:59:53.687Z,2.75
2022-10-17T15:02:23.209Z,2.75
2022-10-17T15:04:49.727Z,3.00
2022-10-17T15:07:17.692Z,2.80
2022-10-17T15:09:46.937Z,3.15
2022-10-17T15:12:15.850Z,2.70
2022-10-17T15:14:42.848Z,3.00
2022-10-17T15:17:13.902Z,2.67
2022-10-17T15:19:41.910Z,2.90
2022-10-17T15:22:08.453Z,3.38
2022-10-17T15:24:35.089Z,2.83
2022-10-17T15:27:01.774Z,2.92
2022-10-17T15:29:28.331Z,2.67
2022-10-17T15:31:54.823Z,2.67
2022-10-17T15:34:21.345Z,2.75
2022-10-17T15:36:51.777Z,2.97
2022-10-17T15:39:18.202Z,3.13
2022-10-17T15:41:44.712Z,2.80
2022-10-17T15:44:11.416Z,3.08
2022-10-17T15:46:40.785Z,2.65
2022-10-17T15:49:11.694Z,2.90
2022-10-17T15:51:38.249Z,3.25
2022-10-17T15:54:06.800Z,3.00
2022-10-17T15:56:35.738Z,3.35
2022-10-17T15:59:03.038Z,2.83
2022-10-17T16:01:31.444Z,3.30
2022-10-17T16:03:57.972Z,3.17
2022-10-17T16:06:25.123Z,2.93
2022-10-17T16:08:52.298Z,2.92
2022-10-17T16:11:28.941Z,3.10
2022-10-17T16:13:58.866Z,3.13
2022-10-17T16:16:25.533Z,3.50
2022-10-17T16:18:52.063Z,2.97
2022-10-17T16:21:21.624Z,3.13
2022-10-17T16:23:48.222Z,3.28
2022-10-17T16:26:14.858Z,3.30
2022-10-17T16:28:46.073Z,3.40
2022-10-17T16:31:19.169Z,3.63
2022-10-17T16:33:46.499Z,2.90
2022-10-17T16:36:13.142Z,3.40
2022-10-17T16:38:39.853Z,3.03
2022-10-17T16:41:18.905Z,3.28
2022-10-17T16:43:47.126Z,3.00
2022-10-17T16:46:13.629Z,3.15
2022-10-17T16:51:12.167Z,3.17
2022-10-17T16:53:39.299Z,3.15
2022-10-17T16:56:08.182Z,3.07
2022-10-17T16:58:34.724Z,3.67
2022-10-17T17:01:04.277Z,3.53
2022-10-17T17:03:30.883Z,3.65
2022-10-17T17:05:57.524Z,3.33
2022-10-17T17:08:24.051Z,3.60
2022-10-17T17:10:50.582Z,3.40
2022-10-17T17:13:17.470Z,3.30
2022-10-17T17:18:16.808Z,3.65
2022-10-17T17:20:43.284Z,6.70
2022-10-17T17:23:10.677Z,7.03
2022-10-17T17:25:40.302Z,7.80
2022-10-17T17:28:07.126Z,5.18
2022-10-17T17:30:34.546Z,5.20
2022-10-17T17:33:01.837Z,5.10
2022-10-17T17:35:29.823Z,4.53
2022-10-17T17:37:56.327Z,4.85
2022-10-17T17:40:22.876Z,4.70
2022-10-17T17:42:49.439Z,6.63
2022-10-17T17:45:16.207Z,8.37
2022-10-17T17:47:42.702Z,5.13
2022-10-17T17:50:09.675Z,5.78
2022-10-17T17:52:37.528Z,4.68
2022-10-17T17:55:04.814Z,4.72
2022-10-17T17:57:31.354Z,5.67
2022-10-17T17:59:57.925Z,4.28
2022-10-17T18:02:24.460Z,5.75
2022-10-17T18:04:50.983Z,4.32
2022-10-17T18:07:17.499Z,5.72
2022-10-17T18:09:45.349Z,5.60
2022-10-17T18:12:11.866Z,7.30
2022-10-17T18:14:38.377Z,4.93
2022-10-17T18:17:04.931Z,5.05
2022-10-17T18:19:31.465Z,4.45
2022-10-17T18:21:57.953Z,5.20
2022-10-17T18:24:24.643Z,4.28
2022-10-17T18:26:52.528Z,4.25
2022-10-17T18:29:19.355Z,4.03
2022-10-17T18:31:45.910Z,4.38
2022-10-17T18:34:12.460Z,4.20
2022-10-17T18:36:39.073Z,4.13
2022-10-17T18:39:05.971Z,4.40
2022-10-17T18:41:32.930Z,4.00
2022-10-17T18:44:00.954Z,4.57
2022-10-17T18:46:29.339Z,4.33
2022-10-17T18:48:56.190Z,4.53
2022-10-17T18:51:24.582Z,4.25
2022-10-17T18:53:52.920Z,3.83
2022-10-17T18:56:20.022Z,4.15
2022-10-17T18:58:47.064Z,4.63
2022-10-17T19:01:18.032Z,4.60
2022-10-17T19:03:46.155Z,4.10
2022-10-17T19:06:14.325Z,4.10
2022-10-17T19:08:42.128Z,5.05
2022-10-17T19:11:10.434Z,4.17
2022-10-17T19:13:37.700Z,4.22
2022-10-17T19:16:05.898Z,4.15
2022-10-17T19:18:34.359Z,3.80
2022-10-17T19:21:02.040Z,4.00
2022-10-17T19:23:28.627Z,3.83
2022-10-17T19:25:57.055Z,3.70
2022-10-17T19:28:26.277Z,3.70
2022-10-17T19:30:52.882Z,3.70
2022-10-17T19:33:19.511Z,3.70
2022-10-17T19:35:54.950Z,4.00
2022-10-17T19:38:21.473Z,3.72
2022-10-17T19:40:48.062Z,4.03
2022-10-17T19:43:14.588Z,4.20
2022-10-17T19:45:41.164Z,3.67
2022-10-17T19:48:07.726Z,4.37
2022-10-17T19:50:36.674Z,4.07
2022-10-17T19:53:07.036Z,3.78
2022-10-17T19:55:33.548Z,3.70
2022-10-17T19:58:00.756Z,4.07
2022-10-17T20:00:27.320Z,4.53
2022-10-17T20:02:54.001Z,4.53
2022-10-17T20:05:23.562Z,4.43
2022-10-17T20:07:52.523Z,4.10
2022-10-17T20:10:20.803Z,4.13
2022-10-17T20:12:47.327Z,4.23
2022-10-17T20:15:13.898Z,3.60
2022-10-17T20:17:40.418Z,3.92
2022-10-17T20:20:08.913Z,3.80
2022-10-17T20:22:35.605Z,3.60
2022-10-17T20:25:02.153Z,3.80
2022-10-17T20:27:30.014Z,3.72
2022-10-17T20:29:56.588Z,3.80
2022-10-17T20:32:23.068Z,3.50
2022-10-17T20:34:49.577Z,3.83
2022-10-17T20:37:16.109Z,3.90
2022-10-17T20:39:42.601Z,4.22
2022-10-17T20:42:09.252Z,4.30
2022-10-17T20:44:37.119Z,3.90
2022-10-17T20:47:04.655Z,4.07
2022-10-17T20:49:33.420Z,4.13
2022-10-17T20:52:00.628Z,4.00
2022-10-17T20:54:27.619Z,4.20
2022-10-17T20:56:54.796Z,3.72
2022-10-17T20:59:21.376Z,4.60
2022-10-17T21:01:49.316Z,4.00
2022-10-17T21:07:02.534Z,4.18
2022-10-17T21:09:29.095Z,4.00
2022-10-17T21:11:55.935Z,4.05
2022-10-17T21:14:23.668Z,4.10
2022-10-17T21:16:52.172Z,4.38
2022-10-17T21:19:18.994Z,4.30
2022-10-17T21:21:46.554Z,4.15
2022-10-17T21:24:15.636Z,4.80
2022-10-17T21:26:43.654Z,4.80
2022-10-17T21:29:12.291Z,4.90
2022-10-17T21:31:40.736Z,5.07
2022-10-17T21:34:10.459Z,4.50
2022-10-17T21:36:38.303Z,4.95
2022-10-17T21:39:05.338Z,4.07
2022-10-17T21:41:32.407Z,4.10
2022-10-17T21:44:01.280Z,4.45
2022-10-17T21:46:28.343Z,4.00
2022-10-17T21:48:55.036Z,4.30
2022-10-17T21:51:24.658Z,3.90
2022-10-17T21:53:52.482Z,4.18
2022-10-17T21:56:22.537Z,4.40
2022-10-17T21:58:50.548Z,4.70
2022-10-17T22:01:20.278Z,4.75
2022-10-17T22:03:48.801Z,4.13
2022-10-17T22:09:06.680Z,3.97
2022-10-17T22:11:35.010Z,4.22
2022-10-17T22:14:04.118Z,3.88
2022-10-17T22:16:30.907Z,3.90
2022-10-17T22:19:01.729Z,4.20
2022-10-17T22:21:31.779Z,4.15
2022-10-17T22:24:00.705Z,4.32
2022-10-17T22:26:29.991Z,4.22
2022-10-17T22:28:57.001Z,4.30
2022-10-17T22:31:23.921Z,4.60
2022-10-17T22:33:50.712Z,4.45
2022-10-17T22:36:17.589Z,3.88
2022-10-17T22:38:44.225Z,4.63
2022-10-17T22:41:10.864Z,3.87
2022-10-17T22:43:38.808Z,4.30
2022-10-17T22:46:06.544Z,4.53
2022-10-17T22:48:33.720Z,4.30
2022-10-17T22:51:00.995Z,4.70
2022-10-17T22:53:27.832Z,4.13
2022-10-17T22:55:56.694Z,4.07
2022-10-17T22:58:24.258Z,4.47
2022-10-17T23:00:52.795Z,4.10
2022-10-17T23:03:20.552Z,4.10
2022-10-17T23:05:47.208Z,4.10
2022-10-17T23:08:14.391Z,4.10
2022-10-17T23:10:41.526Z,5.05
2022-10-17T23:13:08.075Z,4.88
2022-10-17T23:15:34.700Z,5.13
2022-10-17T23:18:03.339Z,4.67
2022-10-17T23:20:31.006Z,5.13
2022-10-17T23:22:57.872Z,5.38
2022-10-17T23:25:24.985Z,5.20
2022-10-17T23:27:51.698Z,4.72
2022-10-17T23:30:18.308Z,4.53
2022-10-17T23:32:45.238Z,4.50
2022-10-17T23:35:13.202Z,4.65
2022-10-17T23:37:39.752Z,4.93
2022-10-17T23:40:07.178Z,4.55
2022-10-17T23:42:33.959Z,4.27
2022-10-17T23:45:00.460Z,4.75
2022-10-17T23:47:27.108Z,4.85
2022-10-17T23:49:53.643Z,4.60
2022-10-17T23:52:21.546Z,5.45
2022-10-17T23:54:48.122Z,4.80
2022-10-17T23:57:14.663Z,4.90
2022-10-17T23:59:41.189Z,4.88
